sensor_id;sensor_type;location;lat;lon;timestamp;temperature;humidity
30304;DHT22;17112;48.636;10.152;2023-08-21T00:00:53;26.00;62.30
30304;DHT22;17112;48.636;10.152;2023-08-21T00:03:19;25.90;62.70
30304;DHT22;17112;48.636;10.152;2023-08-21T00:05:45;25.90;62.70
30304;DHT22;17112;48.636;10.152;2023-08-21T00:08:10;25.90;63.60
30304;DHT22;17112;48.636;10.152;2023-08-21T00:10:39;25.90;63.00
30304;DHT22;17112;48.636;10.152;2023-08-21T00:13:06;25.80;63.50
30304;DHT22;17112;48.636;10.152;2023-08-21T00:15:32;25.80;63.20
30304;DHT22;17112;48.636;10.152;2023-08-21T00:17:58;25.80;63.20
30304;DHT22;17112;48.636;10.152;2023-08-21T00:20:24;25.80;63.40
30304;DHT22;17112;48.636;10.152;2023-08-21T00:22:49;25.70;63.50
30304;DHT22;17112;48.636;10.152;2023-08-21T00:25:15;25.70;63.60
30304;DHT22;17112;48.636;10.152;2023-08-21T00:27:41;25.70;63.90
30304;DHT22;17112;48.636;10.152;2023-08-21T00:30:07;25.60;63.70
30304;DHT22;17112;48.636;10.152;2023-08-21T00:32:32;25.60;63.90
30304;DHT22;17112;48.636;10.152;2023-08-21T00:34:58;25.60;64.10
30304;DHT22;17112;48.636;10.152;2023-08-21T00:37:24;25.60;64.20
30304;DHT22;17112;48.636;10.152;2023-08-21T00:39:50;25.50;64.30
30304;DHT22;17112;48.636;10.152;2023-08-21T00:42:15;25.50;64.30
30304;DHT22;17112;48.636;10.152;2023-08-21T00:44:41;25.50;64.30
30304;DHT22;17112;48.636;10.152;2023-08-21T00:47:06;25.50;64.50
30304;DHT22;17112;48.636;10.152;2023-08-21T00:49:33;25.50;64.60
30304;DHT22;17112;48.636;10.152;2023-08-21T00:51:59;25.50;64.60
30304;DHT22;17112;48.636;10.152;2023-08-21T00:54:25;25.40;64.60
30304;DHT22;17112;48.636;10.152;2023-08-21T00:56:51;25.40;64.60
30304;DHT22;17112;48.636;10.152;2023-08-21T00:59:18;25.40;64.70
30304;DHT22;17112;48.636;10.152;2023-08-21T01:01:45;25.40;64.60
30304;DHT22;17112;48.636;10.152;2023-08-21T01:04:11;25.30;64.50
30304;DHT22;17112;48.636;10.152;2023-08-21T01:06:37;25.30;64.60
30304;DHT22;17112;48.636;10.152;2023-08-21T01:17:21;25.20;65.10
30304;DHT22;17112;48.636;10.152;2023-08-21T01:19:49;25.20;65.00
30304;DHT22;17112;48.636;10.152;2023-08-21T01:22:15;25.20;65.20
30304;DHT22;17112;48.636;10.152;2023-08-21T01:24:41;25.20;65.30
30304;DHT22;17112;48.636;10.152;2023-08-21T01:27:08;25.10;65.30
30304;DHT22;17112;48.636;10.152;2023-08-21T01:29:34;25.10;65.40
30304;DHT22;17112;48.636;10.152;2023-08-21T01:34:46;25.10;66.30
30304;DHT22;17112;48.636;10.152;2023-08-21T01:37:12;25.10;65.40
30304;DHT22;17112;48.636;10.152;2023-08-21T01:39:38;25.00;65.30
30304;DHT22;17112;48.636;10.152;2023-08-21T01:42:04;25.10;65.50
30304;DHT22;17112;48.636;10.152;2023-08-21T01:44:30;25.10;65.50
30304;DHT22;17112;48.636;10.152;2023-08-21T01:46:55;25.00;66.20
30304;DHT22;17112;48.636;10.152;2023-08-21T01:49:21;25.00;65.60
30304;DHT22;17112;48.636;10.152;2023-08-21T01:51:47;25.00;65.70
30304;DHT22;17112;48.636;10.152;2023-08-21T01:54:12;24.90;65.80
30304;DHT22;17112;48.636;10.152;2023-08-21T01:56:38;25.00;65.90
30304;DHT22;17112;48.636;10.152;2023-08-21T01:59:07;24.90;66.00
30304;DHT22;17112;48.636;10.152;2023-08-21T02:01:33;24.90;66.30
30304;DHT22;17112;48.636;10.152;2023-08-21T02:03:59;24.90;66.00
30304;DHT22;17112;48.636;10.152;2023-08-21T02:06:25;24.80;66.00
30304;DHT22;17112;48.636;10.152;2023-08-21T02:08:50;24.80;66.20
30304;DHT22;17112;48.636;10.152;2023-08-21T02:11:16;24.80;66.20
30304;DHT22;17112;48.636;10.152;2023-08-21T02:13:41;24.80;66.30
30304;DHT22;17112;48.636;10.152;2023-08-21T02:16:07;24.70;66.30
30304;DHT22;17112;48.636;10.152;2023-08-21T02:18:33;24.70;66.50
30304;DHT22;17112;48.636;10.152;2023-08-21T02:21:01;24.70;66.50
30304;DHT22;17112;48.636;10.152;2023-08-21T02:23:27;24.70;66.70
30304;DHT22;17112;48.636;10.152;2023-08-21T02:25:53;24.70;66.60
30304;DHT22;17112;48.636;10.152;2023-08-21T02:28:19;24.60;66.70
30304;DHT22;17112;48.636;10.152;2023-08-21T02:30:45;24.70;66.90
30304;DHT22;17112;48.636;10.152;2023-08-21T02:33:11;24.60;66.90
30304;DHT22;17112;48.636;10.152;2023-08-21T02:35:36;24.60;66.90
30304;DHT22;17112;48.636;10.152;2023-08-21T02:38:02;24.60;66.90
30304;DHT22;17112;48.636;10.152;2023-08-21T02:40:28;24.60;66.90
30304;DHT22;17112;48.636;10.152;2023-08-21T02:42:54;24.50;67.00
30304;DHT22;17112;48.636;10.152;2023-08-21T02:45:20;24.50;67.10
30304;DHT22;17112;48.636;10.152;2023-08-21T02:47:45;24.50;67.10
30304;DHT22;17112;48.636;10.152;2023-08-21T02:50:11;24.50;67.20
30304;DHT22;17112;48.636;10.152;2023-08-21T02:52:37;24.50;67.20
30304;DHT22;17112;48.636;10.152;2023-08-21T02:55:04;24.50;67.20
30304;DHT22;17112;48.636;10.152;2023-08-21T02:57:30;24.40;67.20
30304;DHT22;17112;48.636;10.152;2023-08-21T02:59:56;24.40;67.10
30304;DHT22;17112;48.636;10.152;2023-08-21T03:02:22;24.40;67.20
30304;DHT22;17112;48.636;10.152;2023-08-21T03:04:48;24.40;67.40
30304;DHT22;17112;48.636;10.152;2023-08-21T03:07:15;24.30;67.60
30304;DHT22;17112;48.636;10.152;2023-08-21T03:09:41;24.30;67.50
30304;DHT22;17112;48.636;10.152;2023-08-21T03:12:07;24.30;67.40
30304;DHT22;17112;48.636;10.152;2023-08-21T03:14:34;24.30;67.50
30304;DHT22;17112;48.636;10.152;2023-08-21T03:17:00;24.30;67.70
30304;DHT22;17112;48.636;10.152;2023-08-21T03:19:26;24.30;67.70
30304;DHT22;17112;48.636;10.152;2023-08-21T03:21:51;24.30;67.80
30304;DHT22;17112;48.636;10.152;2023-08-21T03:24:18;24.20;67.80
30304;DHT22;17112;48.636;10.152;2023-08-21T03:26:44;24.20;68.00
30304;DHT22;17112;48.636;10.152;2023-08-21T03:29:10;24.20;68.10
30304;DHT22;17112;48.636;10.152;2023-08-21T03:31:35;24.20;68.90
30304;DHT22;17112;48.636;10.152;2023-08-21T03:34:01;24.10;68.20
30304;DHT22;17112;48.636;10.152;2023-08-21T03:36:27;24.10;68.30
30304;DHT22;17112;48.636;10.152;2023-08-21T03:39:00;24.10;68.30
30304;DHT22;17112;48.636;10.152;2023-08-21T03:41:26;24.10;68.70
30304;DHT22;17112;48.636;10.152;2023-08-21T03:43:52;24.00;68.50
30304;DHT22;17112;48.636;10.152;2023-08-21T03:46:17;24.00;68.60
30304;DHT22;17112;48.636;10.152;2023-08-21T03:48:43;24.00;68.60
30304;DHT22;17112;48.636;10.152;2023-08-21T03:51:09;24.00;68.60
30304;DHT22;17112;48.636;10.152;2023-08-21T03:53:35;24.00;68.60
30304;DHT22;17112;48.636;10.152;2023-08-21T03:56:00;24.00;68.70
30304;DHT22;17112;48.636;10.152;2023-08-21T03:58:26;24.00;68.80
30304;DHT22;17112;48.636;10.152;2023-08-21T04:00:53;24.00;68.80
30304;DHT22;17112;48.636;10.152;2023-08-21T04:03:19;24.00;68.80
30304;DHT22;17112;48.636;10.152;2023-08-21T04:05:44;23.90;68.80
30304;DHT22;17112;48.636;10.152;2023-08-21T04:08:10;23.90;68.90
30304;DHT22;17112;48.636;10.152;2023-08-21T04:10:36;23.90;69.00
30304;DHT22;17112;48.636;10.152;2023-08-21T04:13:02;23.90;69.10
30304;DHT22;17112;48.636;10.152;2023-08-21T04:15:27;23.90;69.10
30304;DHT22;17112;48.636;10.152;2023-08-21T04:17:53;23.80;69.00
30304;DHT22;17112;48.636;10.152;2023-08-21T04:20:22;23.90;69.20
30304;DHT22;17112;48.636;10.152;2023-08-21T04:22:48;23.80;69.40
30304;DHT22;17112;48.636;10.152;2023-08-21T04:25:14;23.80;69.20
30304;DHT22;17112;48.636;10.152;2023-08-21T04:27:39;23.80;69.30
30304;DHT22;17112;48.636;10.152;2023-08-21T04:30:05;23.70;69.30
30304;DHT22;17112;48.636;10.152;2023-08-21T04:32:31;23.70;69.40
30304;DHT22;17112;48.636;10.152;2023-08-21T04:34:57;23.70;69.50
30304;DHT22;17112;48.636;10.152;2023-08-21T04:37:23;23.70;69.50
30304;DHT22;17112;48.636;10.152;2023-08-21T04:39:55;23.70;70.40
30304;DHT22;17112;48.636;10.152;2023-08-21T04:42:21;23.70;70.20
30304;DHT22;17112;48.636;10.152;2023-08-21T04:44:47;23.70;69.70
30304;DHT22;17112;48.636;10.152;2023-08-21T04:49:45;23.70;70.60
30304;DHT22;17112;48.636;10.152;2023-08-21T04:52:10;23.70;70.00
30304;DHT22;17112;48.636;10.152;2023-08-21T04:54:36;23.70;70.00
30304;DHT22;17112;48.636;10.152;2023-08-21T04:57:02;23.70;70.00
30304;DHT22;17112;48.636;10.152;2023-08-21T04:59:28;23.70;70.10
30304;DHT22;17112;48.636;10.152;2023-08-21T05:01:54;23.70;70.20
30304;DHT22;17112;48.636;10.152;2023-08-21T05:04:19;23.70;70.20
30304;DHT22;17112;48.636;10.152;2023-08-21T05:06:45;23.70;70.20
30304;DHT22;17112;48.636;10.152;2023-08-21T05:09:11;23.70;70.20
30304;DHT22;17112;48.636;10.152;2023-08-21T05:11:36;23.70;70.20
30304;DHT22;17112;48.636;10.152;2023-08-21T05:14:02;23.80;70.30
30304;DHT22;17112;48.636;10.152;2023-08-21T05:16:28;23.80;70.30
30304;DHT22;17112;48.636;10.152;2023-08-21T05:18:54;23.80;70.40
30304;DHT22;17112;48.636;10.152;2023-08-21T05:21:19;23.80;70.30
30304;DHT22;17112;48.636;10.152;2023-08-21T05:23:45;23.90;70.50
30304;DHT22;17112;48.636;10.152;2023-08-21T05:26:11;23.90;70.40
30304;DHT22;17112;48.636;10.152;2023-08-21T05:28:36;24.00;70.40
30304;DHT22;17112;48.636;10.152;2023-08-21T05:31:02;24.00;70.50
30304;DHT22;17112;48.636;10.152;2023-08-21T05:33:28;24.10;70.40
30304;DHT22;17112;48.636;10.152;2023-08-21T05:35:53;24.20;70.30
30304;DHT22;17112;48.636;10.152;2023-08-21T05:38:21;24.30;70.40
30304;DHT22;17112;48.636;10.152;2023-08-21T05:40:48;24.30;70.10
30304;DHT22;17112;48.636;10.152;2023-08-21T05:43:14;24.50;70.30
30304;DHT22;17112;48.636;10.152;2023-08-21T05:45:39;24.50;70.10
30304;DHT22;17112;48.636;10.152;2023-08-21T05:48:05;24.60;69.80
30304;DHT22;17112;48.636;10.152;2023-08-21T05:50:31;24.70;69.70
30304;DHT22;17112;48.636;10.152;2023-08-21T05:52:57;24.80;69.60
30304;DHT22;17112;48.636;10.152;2023-08-21T05:55:23;24.90;69.30
30304;DHT22;17112;48.636;10.152;2023-08-21T05:57:49;25.00;69.10
30304;DHT22;17112;48.636;10.152;2023-08-21T06:00:15;25.10;68.90
30304;DHT22;17112;48.636;10.152;2023-08-21T06:02:41;25.20;68.80
30304;DHT22;17112;48.636;10.152;2023-08-21T06:05:09;25.30;68.60
30304;DHT22;17112;48.636;10.152;2023-08-21T06:07:35;25.40;68.50
30304;DHT22;17112;48.636;10.152;2023-08-21T06:10:01;25.50;68.30
30304;DHT22;17112;48.636;10.152;2023-08-21T06:12:26;25.60;68.10
30304;DHT22;17112;48.636;10.152;2023-08-21T06:14:52;25.70;67.80
30304;DHT22;17112;48.636;10.152;2023-08-21T06:17:18;25.80;67.60
30304;DHT22;17112;48.636;10.152;2023-08-21T06:19:44;25.90;67.50
30304;DHT22;17112;48.636;10.152;2023-08-21T06:22:09;26.00;67.30
30304;DHT22;17112;48.636;10.152;2023-08-21T06:24:35;26.10;67.10
30304;DHT22;17112;48.636;10.152;2023-08-21T06:27:00;26.20;67.00
30304;DHT22;17112;48.636;10.152;2023-08-21T06:29:26;26.30;66.80
30304;DHT22;17112;48.636;10.152;2023-08-21T06:31:52;26.40;66.70
30304;DHT22;17112;48.636;10.152;2023-08-21T06:34:18;26.50;66.40
30304;DHT22;17112;48.636;10.152;2023-08-21T06:36:43;26.60;66.30
30304;DHT22;17112;48.636;10.152;2023-08-21T06:39:09;26.70;66.20
30304;DHT22;17112;48.636;10.152;2023-08-21T06:41:35;26.80;66.00
30304;DHT22;17112;48.636;10.152;2023-08-21T06:44:00;26.90;65.70
30304;DHT22;17112;48.636;10.152;2023-08-21T06:46:26;27.00;65.50
30304;DHT22;17112;48.636;10.152;2023-08-21T06:48:52;27.10;65.30
30304;DHT22;17112;48.636;10.152;2023-08-21T06:51:17;27.20;65.10
30304;DHT22;17112;48.636;10.152;2023-08-21T06:53:43;27.30;65.00
30304;DHT22;17112;48.636;10.152;2023-08-21T06:56:09;27.50;65.00
30304;DHT22;17112;48.636;10.152;2023-08-21T06:58:34;27.60;64.80
30304;DHT22;17112;48.636;10.152;2023-08-21T07:01:01;27.70;64.60
30304;DHT22;17112;48.636;10.152;2023-08-21T07:03:26;27.80;64.40
30304;DHT22;17112;48.636;10.152;2023-08-21T07:05:56;28.00;64.40
30304;DHT22;17112;48.636;10.152;2023-08-21T07:08:22;28.10;64.30
30304;DHT22;17112;48.636;10.152;2023-08-21T07:10:49;28.30;64.20
30304;DHT22;17112;48.636;10.152;2023-08-21T07:13:14;28.40;63.60
30304;DHT22;17112;48.636;10.152;2023-08-21T07:15:40;28.50;63.20
30304;DHT22;17112;48.636;10.152;2023-08-21T07:18:06;28.70;63.10
30304;DHT22;17112;48.636;10.152;2023-08-21T07:20:33;28.80;62.50
30304;DHT22;17112;48.636;10.152;2023-08-21T07:22:59;29.00;62.20
30304;DHT22;17112;48.636;10.152;2023-08-21T07:25:25;29.10;61.90
30304;DHT22;17112;48.636;10.152;2023-08-21T07:27:51;29.20;61.50
30304;DHT22;17112;48.636;10.152;2023-08-21T07:30:19;29.40;61.10
30304;DHT22;17112;48.636;10.152;2023-08-21T07:32:46;29.50;60.90
30304;DHT22;17112;48.636;10.152;2023-08-21T07:35:11;29.70;60.60
30304;DHT22;17112;48.636;10.152;2023-08-21T07:37:37;29.70;60.10
30304;DHT22;17112;48.636;10.152;2023-08-21T07:40:04;29.90;59.80
30304;DHT22;17112;48.636;10.152;2023-08-21T07:42:30;30.00;59.50
30304;DHT22;17112;48.636;10.152;2023-08-21T07:44:56;30.10;59.30
30304;DHT22;17112;48.636;10.152;2023-08-21T07:47:21;30.30;58.90
30304;DHT22;17112;48.636;10.152;2023-08-21T07:49:47;30.30;58.60
30304;DHT22;17112;48.636;10.152;2023-08-21T07:52:13;30.40;58.10
30304;DHT22;17112;48.636;10.152;2023-08-21T07:54:38;30.60;57.80
30304;DHT22;17112;48.636;10.152;2023-08-21T07:57:04;30.60;57.40
30304;DHT22;17112;48.636;10.152;2023-08-21T07:59:30;30.70;57.30
30304;DHT22;17112;48.636;10.152;2023-08-21T08:01:55;30.90;57.30
30304;DHT22;17112;48.636;10.152;2023-08-21T08:04:21;30.90;57.00
30304;DHT22;17112;48.636;10.152;2023-08-21T08:06:47;31.10;56.80
30304;DHT22;17112;48.636;10.152;2023-08-21T08:09:13;31.10;56.80
30304;DHT22;17112;48.636;10.152;2023-08-21T08:11:39;31.30;56.50
30304;DHT22;17112;48.636;10.152;2023-08-21T08:14:04;31.30;56.20
30304;DHT22;17112;48.636;10.152;2023-08-21T08:16:30;31.50;56.20
30304;DHT22;17112;48.636;10.152;2023-08-21T08:18:56;31.50;55.80
30304;DHT22;17112;48.636;10.152;2023-08-21T08:21:21;31.60;55.40
30304;DHT22;17112;48.636;10.152;2023-08-21T08:23:47;31.70;55.80
30304;DHT22;17112;48.636;10.152;2023-08-21T08:26:13;31.80;55.10
30304;DHT22;17112;48.636;10.152;2023-08-21T08:28:38;31.90;55.10
30304;DHT22;17112;48.636;10.152;2023-08-21T08:31:04;32.00;55.10
30304;DHT22;17112;48.636;10.152;2023-08-21T08:33:30;32.10;55.00
30304;DHT22;17112;48.636;10.152;2023-08-21T08:35:55;32.10;54.70
30304;DHT22;17112;48.636;10.152;2023-08-21T08:38:21;32.30;54.20
30304;DHT22;17112;48.636;10.152;2023-08-21T08:40:47;32.30;53.90
30304;DHT22;17112;48.636;10.152;2023-08-21T08:43:14;32.40;54.40
30304;DHT22;17112;48.636;10.152;2023-08-21T08:45:41;32.50;53.40
30304;DHT22;17112;48.636;10.152;2023-08-21T08:48:07;32.50;53.40
30304;DHT22;17112;48.636;10.152;2023-08-21T08:50:34;32.70;53.50
30304;DHT22;17112;48.636;10.152;2023-08-21T08:53:00;32.70;52.80
30304;DHT22;17112;48.636;10.152;2023-08-21T08:55:26;32.80;52.40
30304;DHT22;17112;48.636;10.152;2023-08-21T08:57:53;32.80;52.20
30304;DHT22;17112;48.636;10.152;2023-08-21T09:00:19;32.90;51.90
30304;DHT22;17112;48.636;10.152;2023-08-21T09:02:46;32.90;52.30
30304;DHT22;17112;48.636;10.152;2023-08-21T09:05:12;33.00;51.90
30304;DHT22;17112;48.636;10.152;2023-08-21T09:07:38;33.00;51.60
30304;DHT22;17112;48.636;10.152;2023-08-21T09:10:05;33.00;51.50
30304;DHT22;17112;48.636;10.152;2023-08-21T09:12:38;32.90;51.40
30304;DHT22;17112;48.636;10.152;2023-08-21T09:15:07;32.90;51.80
30304;DHT22;17112;48.636;10.152;2023-08-21T09:17:33;33.00;51.40
30304;DHT22;17112;48.636;10.152;2023-08-21T09:20:06;33.00;50.90
30304;DHT22;17112;48.636;10.152;2023-08-21T09:22:33;32.90;50.00
30304;DHT22;17112;48.636;10.152;2023-08-21T09:25:07;32.80;50.10
30304;DHT22;17112;48.636;10.152;2023-08-21T09:27:38;32.80;49.50
30304;DHT22;17112;48.636;10.152;2023-08-21T09:30:13;32.80;50.20
30304;DHT22;17112;48.636;10.152;2023-08-21T09:32:59;32.90;49.80
30304;DHT22;17112;48.636;10.152;2023-08-21T09:35:26;33.00;49.40
30304;DHT22;17112;48.636;10.152;2023-08-21T09:37:52;33.10;49.90
30304;DHT22;17112;48.636;10.152;2023-08-21T09:40:19;33.30;49.60
30304;DHT22;17112;48.636;10.152;2023-08-21T09:42:45;33.40;49.40
30304;DHT22;17112;48.636;10.152;2023-08-21T09:45:11;33.40;49.60
30304;DHT22;17112;48.636;10.152;2023-08-21T09:47:37;33.60;49.40
30304;DHT22;17112;48.636;10.152;2023-08-21T09:50:05;33.60;48.80
30304;DHT22;17112;48.636;10.152;2023-08-21T09:52:31;33.60;48.20
30304;DHT22;17112;48.636;10.152;2023-08-21T09:54:57;33.60;48.30
30304;DHT22;17112;48.636;10.152;2023-08-21T09:57:23;33.70;48.40
30304;DHT22;17112;48.636;10.152;2023-08-21T09:59:53;33.70;47.50
30304;DHT22;17112;48.636;10.152;2023-08-21T10:02:22;33.70;47.60
30304;DHT22;17112;48.636;10.152;2023-08-21T10:04:49;33.70;48.00
30304;DHT22;17112;48.636;10.152;2023-08-21T10:07:16;33.70;48.00
30304;DHT22;17112;48.636;10.152;2023-08-21T10:09:45;33.80;48.00
30304;DHT22;17112;48.636;10.152;2023-08-21T10:12:14;33.80;47.70
30304;DHT22;17112;48.636;10.152;2023-08-21T10:14:42;33.90;47.20
30304;DHT22;17112;48.636;10.152;2023-08-21T10:17:08;34.00;47.10
30304;DHT22;17112;48.636;10.152;2023-08-21T10:19:35;34.10;46.70
30304;DHT22;17112;48.636;10.152;2023-08-21T10:22:01;34.20;46.60
30304;DHT22;17112;48.636;10.152;2023-08-21T10:24:36;34.30;47.00
30304;DHT22;17112;48.636;10.152;2023-08-21T10:27:03;34.40;46.10
30304;DHT22;17112;48.636;10.152;2023-08-21T10:29:29;34.50;46.80
30304;DHT22;17112;48.636;10.152;2023-08-21T10:32:00;34.60;46.40
30304;DHT22;17112;48.636;10.152;2023-08-21T10:34:36;34.60;45.60
30304;DHT22;17112;48.636;10.152;2023-08-21T10:37:10;34.60;45.10
30304;DHT22;17112;48.636;10.152;2023-08-21T10:39:38;34.60;44.30
30304;DHT22;17112;48.636;10.152;2023-08-21T10:42:11;34.50;45.70
30304;DHT22;17112;48.636;10.152;2023-08-21T10:47:15;34.50;46.10
30304;DHT22;17112;48.636;10.152;2023-08-21T10:49:42;34.40;46.20
30304;DHT22;17112;48.636;10.152;2023-08-21T10:52:09;34.40;46.00
30304;DHT22;17112;48.636;10.152;2023-08-21T10:55:04;34.30;45.80
30304;DHT22;17112;48.636;10.152;2023-08-21T10:57:31;34.20;45.30
30304;DHT22;17112;48.636;10.152;2023-08-21T11:00:01;34.10;45.30
30304;DHT22;17112;48.636;10.152;2023-08-21T11:02:30;34.10;45.70
30304;DHT22;17112;48.636;10.152;2023-08-21T11:04:56;34.00;45.40
30304;DHT22;17112;48.636;10.152;2023-08-21T11:07:22;34.00;45.30
30304;DHT22;17112;48.636;10.152;2023-08-21T11:09:49;34.00;46.60
30304;DHT22;17112;48.636;10.152;2023-08-21T11:12:16;34.10;46.80
30304;DHT22;17112;48.636;10.152;2023-08-21T11:14:42;34.30;46.30
30304;DHT22;17112;48.636;10.152;2023-08-21T11:17:09;34.40;45.70
30304;DHT22;17112;48.636;10.152;2023-08-21T11:19:35;34.50;46.00
30304;DHT22;17112;48.636;10.152;2023-08-21T11:22:02;34.70;45.90
30304;DHT22;17112;48.636;10.152;2023-08-21T11:27:04;35.10;43.90
30304;DHT22;17112;48.636;10.152;2023-08-21T11:29:51;35.30;43.80
30304;DHT22;17112;48.636;10.152;2023-08-21T11:32:19;35.40;43.40
30304;DHT22;17112;48.636;10.152;2023-08-21T11:34:55;35.60;43.20
30304;DHT22;17112;48.636;10.152;2023-08-21T11:37:26;35.70;42.40
30304;DHT22;17112;48.636;10.152;2023-08-21T11:39:56;35.90;43.30
30304;DHT22;17112;48.636;10.152;2023-08-21T11:42:30;36.00;43.40
30304;DHT22;17112;48.636;10.152;2023-08-21T11:44:56;36.10;43.60
30304;DHT22;17112;48.636;10.152;2023-08-21T11:47:22;36.20;44.20
30304;DHT22;17112;48.636;10.152;2023-08-21T11:49:49;36.30;43.00
30304;DHT22;17112;48.636;10.152;2023-08-21T11:52:23;36.30;42.40
30304;DHT22;17112;48.636;10.152;2023-08-21T11:54:53;36.20;42.30
30304;DHT22;17112;48.636;10.152;2023-08-21T11:57:20;36.00;42.40
30304;DHT22;17112;48.636;10.152;2023-08-21T11:59:54;35.90;42.10
30304;DHT22;17112;48.636;10.152;2023-08-21T12:02:29;35.80;42.30
30304;DHT22;17112;48.636;10.152;2023-08-21T12:05:01;35.80;41.80
30304;DHT22;17112;48.636;10.152;2023-08-21T12:07:27;35.70;42.60
30304;DHT22;17112;48.636;10.152;2023-08-21T12:09:53;35.60;42.50
30304;DHT22;17112;48.636;10.152;2023-08-21T12:12:19;35.50;42.60
30304;DHT22;17112;48.636;10.152;2023-08-21T12:14:45;35.30;42.70
30304;DHT22;17112;48.636;10.152;2023-08-21T12:17:11;35.20;43.40
30304;DHT22;17112;48.636;10.152;2023-08-21T12:19:37;35.20;44.30
30304;DHT22;17112;48.636;10.152;2023-08-21T12:22:03;35.30;44.70
30304;DHT22;17112;48.636;10.152;2023-08-21T12:24:29;35.50;43.90
30304;DHT22;17112;48.636;10.152;2023-08-21T12:26:55;35.60;43.30
30304;DHT22;17112;48.636;10.152;2023-08-21T12:29:21;35.80;43.20
30304;DHT22;17112;48.636;10.152;2023-08-21T12:31:47;35.80;43.00
30304;DHT22;17112;48.636;10.152;2023-08-21T12:34:13;35.80;41.80
30304;DHT22;17112;48.636;10.152;2023-08-21T12:36:39;35.80;41.90
30304;DHT22;17112;48.636;10.152;2023-08-21T12:39:05;35.80;41.50
30304;DHT22;17112;48.636;10.152;2023-08-21T12:41:32;35.80;41.50
30304;DHT22;17112;48.636;10.152;2023-08-21T12:44:01;35.90;41.00
30304;DHT22;17112;48.636;10.152;2023-08-21T12:46:29;36.00;40.90
30304;DHT22;17112;48.636;10.152;2023-08-21T12:48:55;36.00;40.20
30304;DHT22;17112;48.636;10.152;2023-08-21T12:51:21;35.90;40.40
30304;DHT22;17112;48.636;10.152;2023-08-21T12:53:47;35.80;39.70
30304;DHT22;17112;48.636;10.152;2023-08-21T12:56:13;35.70;39.90
30304;DHT22;17112;48.636;10.152;2023-08-21T12:58:39;35.50;39.90
30304;DHT22;17112;48.636;10.152;2023-08-21T13:01:04;35.40;39.90
30304;DHT22;17112;48.636;10.152;2023-08-21T13:03:32;35.30;40.20
30304;DHT22;17112;48.636;10.152;2023-08-21T13:05:58;35.20;40.40
30304;DHT22;17112;48.636;10.152;2023-08-21T13:08:24;35.30;40.70
30304;DHT22;17112;48.636;10.152;2023-08-21T13:10:50;35.40;41.00
30304;DHT22;17112;48.636;10.152;2023-08-21T13:13:15;35.50;42.00
30304;DHT22;17112;48.636;10.152;2023-08-21T13:15:41;35.70;42.00
30304;DHT22;17112;48.636;10.152;2023-08-21T13:18:10;35.90;42.10
30304;DHT22;17112;48.636;10.152;2023-08-21T13:20:36;36.20;41.40
30304;DHT22;17112;48.636;10.152;2023-08-21T13:23:01;36.40;40.30
30304;DHT22;17112;48.636;10.152;2023-08-21T13:25:27;36.70;39.50
30304;DHT22;17112;48.636;10.152;2023-08-21T13:27:54;36.90;39.40
30304;DHT22;17112;48.636;10.152;2023-08-21T13:30:20;37.00;39.30
30304;DHT22;17112;48.636;10.152;2023-08-21T13:32:46;37.20;39.40
30304;DHT22;17112;48.636;10.152;2023-08-21T13:35:12;37.20;38.60
30304;DHT22;17112;48.636;10.152;2023-08-21T13:37:39;37.20;38.50
30304;DHT22;17112;48.636;10.152;2023-08-21T13:40:05;37.20;38.50
30304;DHT22;17112;48.636;10.152;2023-08-21T13:42:38;37.20;38.40
30304;DHT22;17112;48.636;10.152;2023-08-21T13:45:07;37.20;38.10
30304;DHT22;17112;48.636;10.152;2023-08-21T13:47:34;37.20;37.80
30304;DHT22;17112;48.636;10.152;2023-08-21T13:50:00;37.20;38.10
30304;DHT22;17112;48.636;10.152;2023-08-21T13:52:26;37.20;37.70
30304;DHT22;17112;48.636;10.152;2023-08-21T13:54:52;37.20;39.00
30304;DHT22;17112;48.636;10.152;2023-08-21T13:57:17;37.30;38.10
30304;DHT22;17112;48.636;10.152;2023-08-21T13:59:43;37.30;37.50
30304;DHT22;17112;48.636;10.152;2023-08-21T14:02:09;37.30;37.50
30304;DHT22;17112;48.636;10.152;2023-08-21T14:04:34;37.30;37.60
30304;DHT22;17112;48.636;10.152;2023-08-21T14:07:00;37.30;37.40
30304;DHT22;17112;48.636;10.152;2023-08-21T14:09:26;37.40;37.60
30304;DHT22;17112;48.636;10.152;2023-08-21T14:11:51;37.50;37.40
30304;DHT22;17112;48.636;10.152;2023-08-21T14:14:17;37.60;37.30
30304;DHT22;17112;48.636;10.152;2023-08-21T14:16:43;37.70;36.90
30304;DHT22;17112;48.636;10.152;2023-08-21T14:19:09;37.90;37.40
30304;DHT22;17112;48.636;10.152;2023-08-21T14:21:35;38.00;37.40
30304;DHT22;17112;48.636;10.152;2023-08-21T14:24:00;38.00;36.90
30304;DHT22;17112;48.636;10.152;2023-08-21T14:26:26;37.90;36.30
30304;DHT22;17112;48.636;10.152;2023-08-21T14:28:52;37.70;36.30
30304;DHT22;17112;48.636;10.152;2023-08-21T14:31:18;37.60;36.60
30304;DHT22;17112;48.636;10.152;2023-08-21T14:33:43;37.30;36.80
30304;DHT22;17112;48.636;10.152;2023-08-21T14:36:09;37.10;37.20
30304;DHT22;17112;48.636;10.152;2023-08-21T14:38:35;36.90;37.40
30304;DHT22;17112;48.636;10.152;2023-08-21T14:41:00;36.60;37.70
30304;DHT22;17112;48.636;10.152;2023-08-21T14:43:26;36.40;38.50
30304;DHT22;17112;48.636;10.152;2023-08-21T14:45:53;36.30;39.00
30304;DHT22;17112;48.636;10.152;2023-08-21T14:48:19;36.20;38.90
30304;DHT22;17112;48.636;10.152;2023-08-21T14:50:45;36.10;39.00
30304;DHT22;17112;48.636;10.152;2023-08-21T14:53:11;36.00;39.50
30304;DHT22;17112;48.636;10.152;2023-08-21T14:55:36;35.90;39.40
30304;DHT22;17112;48.636;10.152;2023-08-21T14:58:02;36.00;39.20
30304;DHT22;17112;48.636;10.152;2023-08-21T15:00:32;36.00;40.10
30304;DHT22;17112;48.636;10.152;2023-08-21T15:02:57;36.20;40.40
30304;DHT22;17112;48.636;10.152;2023-08-21T15:05:23;36.40;40.20
30304;DHT22;17112;48.636;10.152;2023-08-21T15:07:49;36.70;39.70
30304;DHT22;17112;48.636;10.152;2023-08-21T15:10:15;36.90;39.00
30304;DHT22;17112;48.636;10.152;2023-08-21T15:12:41;37.20;37.90
30304;DHT22;17112;48.636;10.152;2023-08-21T15:15:07;37.30;37.70
30304;DHT22;17112;48.636;10.152;2023-08-21T15:17:32;37.30;37.60
30304;DHT22;17112;48.636;10.152;2023-08-21T15:19:58;37.40;38.00
30304;DHT22;17112;48.636;10.152;2023-08-21T15:22:24;37.50;38.10
30304;DHT22;17112;48.636;10.152;2023-08-21T15:24:49;37.70;37.30
30304;DHT22;17112;48.636;10.152;2023-08-21T15:27:15;37.80;37.40
30304;DHT22;17112;48.636;10.152;2023-08-21T15:29:43;37.90;37.10